Kezdőlap
METAR-TAF:

METAR-TAF

Repülőterek :

Nagyszeben, Románia

földrajzi szélesség: 45-48N, földrajzi hosszúság: 024-09E, magasság: 443 m

Jelenlegi meteorológiai megfigyelések

A jelentés 13 perccel ezelõtt készült, 17:30 UTC
Északnyugati szél 4 kt
Hőmérséklet 1°C
Páratartalom 75%
Légköri nyomás 1018 hPa
Látótávolság 10 km, vagy több
felhőtlen 1500 m magasságban, és nincs gomolyfelhõ

METAR: LRSB 151730Z 32004KT CAVOK 01/M03 Q1018

Idő: 19:43 (17:43 UTC)

Előrejelzés

A jelentés 43 perccel ezelõtt készült, 17:00 UTC
Az előrejelzés 15-én 18 óra UTC és 16-én 18 óra UTC között érvényes
Különbözõ irányokból fújó szél 4 kt
Látótávolság 10 km, vagy több
felhőtlen 1500 m magasságban, és nincs gomolyfelhõ
16-én 01 óra UTC és 16-én 05 óra UTC között ideiglenes
Látótávolság: 3000 m
Párásság

TAF: LRSB 151700Z 1518/1618 VRB04KT CAVOK TEMPO 1601/1605 3000 BR

Meteorológiai megfigyelések és előrejelzések több, mint 4000 repülőtéren (METAR és TAF jelentéseket).

A térképen piros és sárga pontok jelzik az elérhető meteorológiai állomásokat.

Mozgassa az egeret a pont fölött, hogy megjelenjen az állomás neve.

Azután kattintson az időjárási megfigyelések és előrejelzések megtekintéséhez.

A térkép megváltoztatása: kattintson a fekete keresztel jelölt zöld gombra ráközelítéshez, a vonallal jelölt zöld gombra távolításhoz, vagy a zöld nyilakra a szomszédos térképek eléréséhez.


METAR-TAF: